createdAt,value
2019-02-28T00:00:17.011Z,100709.10
2019-02-28T00:02:48.912Z,100706.48
2019-02-28T00:05:19.267Z,100700.22
2019-02-28T00:07:50.506Z,100702.01
2019-02-28T00:10:20.915Z,100695.92
2019-02-28T00:12:51.181Z,100692.45
2019-02-28T00:15:21.527Z,100690.78
2019-02-28T00:17:52.038Z,100684.41
2019-02-28T00:20:22.410Z,100682.60
2019-02-28T00:22:52.753Z,100671.17
2019-02-28T00:25:23.100Z,100665.89
2019-02-28T00:28:11.636Z,100660.29
2019-02-28T00:30:41.995Z,100648.75
2019-02-28T00:33:12.340Z,100651.51
2019-02-28T00:35:44.714Z,100639.77
2019-02-28T00:38:14.771Z,100643.04
2019-02-28T00:40:45.099Z,100636.21
2019-02-28T00:43:16.447Z,100630.13
2019-02-28T00:45:46.718Z,100631.09
2019-02-28T00:48:18.307Z,100621.02
2019-02-28T00:50:48.950Z,100621.14
2019-02-28T00:53:19.286Z,100620.39
2019-02-28T00:55:49.557Z,100621.36
2019-02-28T00:58:19.880Z,100616.69
2019-02-28T01:00:50.251Z,100608.62
2019-02-28T01:03:20.591Z,100602.45
2019-02-28T01:05:50.866Z,100597.95
2019-02-28T01:08:22.087Z,100592.53
2019-02-28T01:10:53.106Z,100581.36
2019-02-28T01:13:27.241Z,100586.33
2019-02-28T01:15:55.474Z,100570.03
2019-02-28T01:18:25.733Z,100564.95
2019-02-28T01:20:56.015Z,100558.84
2019-02-28T01:23:29.370Z,100553.10
2019-02-28T01:25:58.249Z,100550.98
2019-02-28T01:28:28.514Z,100554.66
2019-02-28T01:30:58.785Z,100550.72
2019-02-28T01:33:29.074Z,100539.36
2019-02-28T01:35:59.415Z,100537.21
2019-02-28T01:38:29.697Z,100528.78
2019-02-28T01:40:59.947Z,100520.25
2019-02-28T01:43:30.215Z,100519.95
2019-02-28T01:46:00.497Z,100513.27
2019-02-28T01:48:30.836Z,100517.00
2019-02-28T01:51:01.722Z,100510.41
2019-02-28T01:53:32.056Z,100501.66
2019-02-28T01:56:03.265Z,100495.27
2019-02-28T01:58:33.500Z,100497.57
2019-02-28T02:01:03.768Z,100486.62
2019-02-28T02:03:34.045Z,100484.08
2019-02-28T02:06:04.306Z,100476.21
2019-02-28T02:08:37.678Z,100472.41
2019-02-28T02:11:06.608Z,100469.83
2019-02-28T02:13:37.489Z,100456.30
2019-02-28T02:16:07.813Z,100439.94
2019-02-28T02:18:40.236Z,100439.16
2019-02-28T02:21:10.053Z,100427.95
2019-02-28T02:23:40.329Z,100429.50
2019-02-28T02:26:11.258Z,100420.21
2019-02-28T02:28:42.152Z,100417.02
2019-02-28T02:31:12.444Z,100407.60
2019-02-28T02:33:50.930Z,100402.42
2019-02-28T02:36:17.581Z,100402.94
2019-02-28T02:38:48.051Z,100395.94
2019-02-28T02:41:18.329Z,100402.22
2019-02-28T02:43:48.617Z,100402.34
2019-02-28T02:46:20.393Z,100398.91
2019-02-28T02:48:50.955Z,100391.24
2019-02-28T02:51:21.279Z,100390.66
2019-02-28T02:53:51.553Z,100389.69
2019-02-28T02:56:21.919Z,100384.16
2019-02-28T02:58:52.178Z,100376.59
2019-02-28T03:01:23.415Z,100378.73
2019-02-28T03:03:54.709Z,100372.20
2019-02-28T03:06:25.055Z,100376.28
2019-02-28T03:08:55.324Z,100374.62
2019-02-28T03:11:26.042Z,100373.86
2019-02-28T03:13:56.621Z,100365.55
2019-02-28T03:16:26.898Z,100357.27
2019-02-28T03:18:58.369Z,100353.28
2019-02-28T03:21:28.823Z,100344.08
2019-02-28T03:23:59.084Z,100339.27
2019-02-28T03:26:29.482Z,100337.15
2019-02-28T03:28:59.812Z,100342.36
2019-02-28T03:31:30.178Z,100331.38
2019-02-28T03:34:10.030Z,100333.98
2019-02-28T03:36:32.594Z,100323.80
2019-02-28T03:39:04.095Z,100313.89
2019-02-28T03:41:34.446Z,100306.53
2019-02-28T03:44:04.714Z,100304.64
2019-02-28T03:46:35.043Z,100307.53
2019-02-28T03:49:11.182Z,100300.17
2019-02-28T03:51:37.257Z,100302.47
2019-02-28T03:54:07.539Z,100295.02
2019-02-28T03:56:37.846Z,100288.03
2019-02-28T03:59:08.097Z,100286.25
2019-02-28T04:01:44.625Z,100276.94
2019-02-28T04:04:12.181Z,100269.45
2019-02-28T04:06:42.310Z,100273.38
2019-02-28T04:09:12.605Z,100257.03
2019-02-28T04:11:42.889Z,100254.45
2019-02-28T04:14:14.141Z,100245.69
2019-02-28T04:16:44.385Z,100250.84
2019-02-28T04:19:21.243Z,100246.45
2019-02-28T04:21:47.881Z,100235.64
2019-02-28T04:24:18.359Z,100230.60
2019-02-28T04:26:48.665Z,100224.17
2019-02-28T04:29:18.947Z,100227.04
2019-02-28T04:31:51.355Z,100226.84
2019-02-28T04:34:21.201Z,100228.81
2019-02-28T04:36:51.493Z,100218.39
2019-02-28T04:39:22.853Z,100200.05
2019-02-28T04:41:53.885Z,100217.77
2019-02-28T04:44:24.152Z,100209.00
2019-02-28T04:46:54.423Z,100205.88
2019-02-28T04:49:24.696Z,100195.83
2019-02-28T04:51:54.973Z,100187.88
2019-02-28T04:54:27.917Z,100183.50
2019-02-28T04:56:57.587Z,100177.92
2019-02-28T04:59:28.103Z,100167.30
2019-02-28T05:01:58.366Z,100167.20
2019-02-28T05:04:28.709Z,100157.84
2019-02-28T05:06:58.995Z,100158.89
2019-02-28T05:09:29.252Z,100147.45
2019-02-28T05:12:02.417Z,100134.44
2019-02-28T05:14:31.522Z,100137.39
2019-02-28T05:17:01.836Z,100127.47
2019-02-28T05:19:32.389Z,100129.42
2019-02-28T05:22:04.019Z,100113.14
2019-02-28T05:24:34.286Z,100115.98
2019-02-28T05:27:04.555Z,100114.78
2019-02-28T05:29:34.824Z,100118.56
2019-02-28T05:32:05.083Z,100117.86
2019-02-28T05:34:35.436Z,100112.58
2019-02-28T05:37:05.704Z,100107.20
2019-02-28T05:39:35.978Z,100098.95
2019-02-28T05:42:06.235Z,100105.22
2019-02-28T05:44:37.385Z,100102.86
2019-02-28T05:47:08.475Z,100096.50
2019-02-28T05:49:40.670Z,100094.99
2019-02-28T05:52:10.756Z,100089.86
2019-02-28T05:54:40.995Z,100098.09
2019-02-28T05:57:11.271Z,100091.34
2019-02-28T05:59:41.541Z,100093.36
2019-02-28T06:02:11.808Z,100092.00
2019-02-28T06:04:42.085Z,100081.80
2019-02-28T06:07:12.362Z,100070.42
2019-02-28T06:09:45.604Z,100066.22
2019-02-28T06:12:14.604Z,100076.82
2019-02-28T06:14:44.893Z,100064.95
2019-02-28T06:17:17.344Z,100062.61
2019-02-28T06:19:47.194Z,100079.47
2019-02-28T06:22:17.463Z,100071.54
2019-02-28T06:24:47.764Z,100071.45
2019-02-28T06:27:18.020Z,100065.55
2019-02-28T06:29:48.432Z,100070.81
2019-02-28T06:32:23.263Z,100070.61
2019-02-28T06:34:50.682Z,100070.20
2019-02-28T06:37:20.958Z,100074.59
2019-02-28T06:39:51.235Z,100077.32
2019-02-28T06:42:21.501Z,100087.22
2019-02-28T06:44:51.841Z,100079.78
2019-02-28T06:47:22.092Z,100077.30
2019-02-28T06:49:52.371Z,100082.88
2019-02-28T06:52:25.261Z,100085.77
2019-02-28T06:54:54.634Z,100086.06
2019-02-28T06:57:26.768Z,100083.73
2019-02-28T06:59:56.941Z,100066.20
2019-02-28T07:02:28.542Z,100054.40
2019-02-28T07:05:02.240Z,100062.44
2019-02-28T07:07:32.517Z,100050.31
2019-02-28T07:10:03.091Z,100063.86
2019-02-28T07:12:33.422Z,100067.05
2019-02-28T07:15:04.240Z,100060.50
2019-02-28T07:17:34.529Z,100045.75
2019-02-28T07:20:09.628Z,100046.81
2019-02-28T07:22:40.142Z,100046.95
2019-02-28T07:25:12.662Z,100045.73
2019-02-28T07:27:44.285Z,100038.82
2019-02-28T07:30:19.364Z,100044.91
2019-02-28T07:32:49.831Z,100041.17
2019-02-28T07:35:20.113Z,100046.61
2019-02-28T07:37:53.627Z,100044.12
2019-02-28T07:40:22.541Z,100044.94
2019-02-28T07:42:52.817Z,100033.53
2019-02-28T07:45:23.119Z,100026.83
2019-02-28T07:47:53.462Z,100024.48
2019-02-28T07:50:23.807Z,100033.66
2019-02-28T07:52:54.085Z,100048.71
2019-02-28T07:55:27.181Z,100039.99
2019-02-28T07:57:56.752Z,100052.77
2019-02-28T08:00:27.212Z,100054.01
2019-02-28T08:02:57.548Z,100045.66
2019-02-28T08:05:30.941Z,100055.42
2019-02-28T08:07:59.920Z,100056.22
2019-02-28T08:10:32.042Z,100061.09
2019-02-28T08:13:03.086Z,100058.80
2019-02-28T08:15:34.280Z,100060.96
2019-02-28T08:18:05.867Z,100068.88
2019-02-28T08:20:36.426Z,100060.55
2019-02-28T08:23:06.714Z,100044.75
2019-02-28T08:25:39.624Z,100033.66
2019-02-28T08:28:09.047Z,100034.41
2019-02-28T08:30:39.443Z,100030.09
2019-02-28T08:33:09.717Z,100042.48
2019-02-28T08:35:40.011Z,100050.47
2019-02-28T08:38:10.371Z,100042.88
2019-02-28T08:40:40.664Z,100039.28
2019-02-28T08:43:13.551Z,100034.45
2019-02-28T08:45:42.996Z,100040.41
2019-02-28T08:48:13.289Z,100049.32
2019-02-28T08:50:43.657Z,100052.27
2019-02-28T08:53:15.560Z,100058.23
2019-02-28T08:55:46.024Z,100058.67
2019-02-28T08:58:16.321Z,100052.50
2019-02-28T09:00:46.677Z,100043.56
2019-02-28T09:03:16.993Z,100027.12
2019-02-28T09:05:47.287Z,100032.12
2019-02-28T09:08:18.622Z,100035.38
2019-02-28T09:10:49.276Z,100026.13
2019-02-28T09:13:19.556Z,100015.47
2019-02-28T09:15:50.676Z,99996.41
2019-02-28T09:18:20.979Z,100020.31
2019-02-28T09:20:51.275Z,100020.31
2019-02-28T09:23:23.486Z,100033.33
2019-02-28T09:25:56.592Z,100055.86
2019-02-28T09:28:27.032Z,100052.14
2019-02-28T09:31:01.316Z,100044.37
2019-02-28T09:33:30.402Z,100048.53
2019-02-28T09:36:02.388Z,100047.56
2019-02-28T09:38:34.018Z,100047.73
2019-02-28T09:41:05.410Z,100036.87
2019-02-28T09:43:35.835Z,100053.61
2019-02-28T09:46:09.036Z,100051.67
2019-02-28T09:48:39.139Z,100047.66
2019-02-28T09:51:09.411Z,100019.41
2019-02-28T09:53:39.758Z,100044.09
2019-02-28T09:56:10.200Z,100052.53
2019-02-28T09:58:40.440Z,100045.71
2019-02-28T10:01:10.727Z,100037.17
2019-02-28T10:03:43.643Z,100027.19
2019-02-28T10:06:16.386Z,100029.18
2019-02-28T10:08:45.956Z,100041.69
2019-02-28T10:11:16.236Z,100042.08
2019-02-28T10:13:49.531Z,100054.20
2019-02-28T10:16:18.531Z,100048.87
2019-02-28T10:18:49.880Z,100054.08
2019-02-28T10:21:20.152Z,100054.88
2019-02-28T10:23:53.404Z,100044.59
2019-02-28T10:26:23.202Z,100048.62
2019-02-28T10:28:53.544Z,100052.89
2019-02-28T10:31:34.776Z,100051.41
2019-02-28T10:33:55.829Z,100054.25
2019-02-28T10:36:26.114Z,100061.16
2019-02-28T10:38:56.475Z,100052.17
2019-02-28T10:41:27.946Z,100052.75
2019-02-28T10:43:59.900Z,100065.22
2019-02-28T10:46:30.320Z,100066.88
2019-02-28T10:49:00.905Z,100071.59
2019-02-28T10:51:31.250Z,100073.12
2019-02-28T10:54:01.562Z,100071.23
2019-02-28T10:56:32.691Z,100068.67
2019-02-28T10:59:03.188Z,100073.83
2019-02-28T11:01:33.553Z,100076.44
2019-02-28T11:04:04.538Z,100074.41
2019-02-28T11:06:38.467Z,100077.93
2019-02-28T11:09:13.832Z,100079.22
2019-02-28T11:11:45.610Z,100080.20
2019-02-28T11:14:18.189Z,100073.61
2019-02-28T11:16:48.541Z,100082.23
2019-02-28T11:19:19.578Z,100084.06
2019-02-28T11:21:50.027Z,100078.42
2019-02-28T11:24:20.575Z,100088.31
2019-02-28T11:26:52.382Z,100086.84
2019-02-28T11:29:22.738Z,100084.07
2019-02-28T11:31:54.181Z,100096.77
2019-02-28T11:34:25.057Z,100091.28
2019-02-28T11:36:55.374Z,100067.92
2019-02-28T11:39:27.588Z,100067.92
2019-02-28T11:41:59.276Z,100071.70
2019-02-28T11:44:29.868Z,100100.53
2019-02-28T11:47:00.141Z,100100.51
2019-02-28T11:49:30.432Z,100096.76
2019-02-28T11:52:00.820Z,100105.22
2019-02-28T11:54:31.210Z,100092.27
2019-02-28T11:57:03.014Z,100102.38
2019-02-28T11:59:33.636Z,100091.61
2019-02-28T12:02:04.055Z,100083.75
2019-02-28T12:04:37.397Z,100077.42
2019-02-28T12:07:06.457Z,100078.91
2019-02-28T12:09:36.829Z,100067.52
2019-02-28T12:12:07.317Z,100079.59
2019-02-28T12:14:39.093Z,100071.63
2019-02-28T12:17:09.364Z,100088.66
2019-02-28T12:19:39.648Z,100073.34
2019-02-28T12:22:12.104Z,100076.39
2019-02-28T12:24:42.024Z,100064.95
2019-02-28T12:27:12.321Z,100057.47
2019-02-28T12:29:45.591Z,100070.67
2019-02-28T12:32:15.932Z,100077.31
2019-02-28T12:34:46.225Z,100074.20
2019-02-28T12:38:05.201Z,100074.20
2019-02-28T12:40:37.722Z,100081.16
2019-02-28T12:43:10.458Z,100081.16
2019-02-28T12:45:46.452Z,100085.97
2019-02-28T12:48:15.381Z,100084.94
2019-02-28T12:50:45.654Z,100078.36
2019-02-28T12:53:16.442Z,100082.08
2019-02-28T12:59:45.390Z,100082.99
2019-02-28T13:02:13.842Z,100082.61
2019-02-28T13:04:44.273Z,100091.64
2019-02-28T13:07:14.627Z,100093.40
2019-02-28T13:09:44.905Z,100087.28
2019-02-28T13:12:15.550Z,100089.00
2019-02-28T13:14:46.473Z,100074.30
2019-02-28T13:17:18.187Z,100088.00
2019-02-28T13:19:48.922Z,100082.79
2019-02-28T13:22:23.317Z,100082.39
2019-02-28T13:24:53.430Z,100079.62
2019-02-28T13:27:23.723Z,100075.75
2019-02-28T13:29:54.002Z,100066.80
2019-02-28T13:32:24.347Z,100063.56
2019-02-28T13:34:54.718Z,100077.08
2019-02-28T13:37:25.075Z,100052.73
2019-02-28T13:39:55.371Z,100074.37
2019-02-28T13:42:25.713Z,100081.55
2019-02-28T13:44:56.000Z,100085.58
2019-02-28T13:47:26.278Z,100081.44
2019-02-28T13:49:56.721Z,100093.23
2019-02-28T13:52:26.979Z,100105.36
2019-02-28T13:54:57.289Z,100101.39
2019-02-28T13:57:27.648Z,100108.42
2019-02-28T13:59:57.936Z,100109.51
2019-02-28T14:02:33.586Z,100109.17
2019-02-28T14:05:04.211Z,100110.17
2019-02-28T14:07:34.855Z,100108.97
2019-02-28T14:10:08.552Z,100107.77
2019-02-28T14:12:39.996Z,100120.98
2019-02-28T14:15:15.431Z,100122.02
2019-02-28T14:17:47.156Z,100117.41
2019-02-28T14:20:17.712Z,100132.14
2019-02-28T14:22:48.188Z,100129.98
2019-02-28T14:25:18.694Z,100125.77
2019-02-28T14:27:49.051Z,100123.45
2019-02-28T14:30:22.831Z,100127.47
2019-02-28T14:32:53.435Z,100128.77
2019-02-28T14:35:25.682Z,100134.34
2019-02-28T14:37:56.912Z,100123.84
2019-02-28T14:40:27.266Z,100131.16
2019-02-28T14:42:57.546Z,100127.59
2019-02-28T14:45:42.736Z,100127.53
2019-02-28T14:48:14.045Z,100131.89
2019-02-28T14:50:45.407Z,100125.55
2019-02-28T14:53:17.407Z,100135.39
2019-02-28T14:55:48.079Z,100130.38
2019-02-28T14:58:21.253Z,100134.88
2019-02-28T15:00:50.428Z,100137.91
2019-02-28T15:03:20.709Z,100126.41
2019-02-28T15:05:52.378Z,100119.28
2019-02-28T15:08:23.056Z,100133.68
2019-02-28T15:10:53.413Z,100125.56
2019-02-28T15:13:23.738Z,100133.31
2019-02-28T15:15:54.369Z,100133.10
2019-02-28T15:18:24.762Z,100140.89
2019-02-28T15:20:56.743Z,100143.31
2019-02-28T15:23:27.093Z,100140.95
2019-02-28T15:25:58.443Z,100136.28
2019-02-28T15:28:28.728Z,100142.02
2019-02-28T15:30:59.033Z,100146.63
2019-02-28T15:33:30.584Z,100142.52
2019-02-28T15:36:01.494Z,100144.92
2019-02-28T15:38:31.923Z,100150.07
2019-02-28T15:49:53.972Z,100156.87
2019-02-28T15:52:28.988Z,100159.05
2019-02-28T15:55:02.961Z,100167.88
2019-02-28T15:58:32.904Z,100184.24
2019-02-28T16:01:32.353Z,100184.80
2019-02-28T16:12:46.545Z,100202.71
2019-02-28T16:15:54.156Z,100210.25
2019-02-28T16:18:33.346Z,100225.09
2019-02-28T16:21:07.190Z,100226.24
2019-02-28T16:23:41.865Z,100226.93
2019-02-28T16:26:57.978Z,100233.03
2019-02-28T16:29:25.755Z,100236.99
2019-02-28T16:31:58.513Z,100242.08
2019-02-28T16:34:29.204Z,100246.02
2019-02-28T16:37:07.438Z,100247.11
2019-02-28T16:42:40.249Z,100255.23
2019-02-28T16:45:15.804Z,100266.90
2019-02-28T16:47:49.246Z,100262.73
2019-02-28T16:50:28.949Z,100263.96
2019-02-28T16:53:01.100Z,100271.38
2019-02-28T16:55:32.740Z,100277.83
2019-02-28T16:58:03.137Z,100279.70
2019-02-28T17:00:39.498Z,100289.91
2019-02-28T17:03:11.875Z,100280.59
2019-02-28T17:05:45.904Z,100282.47
2019-02-28T17:08:19.531Z,100285.34
2019-02-28T17:10:52.734Z,100288.47
2019-02-28T17:13:24.860Z,100294.33
2019-02-28T17:16:02.361Z,100303.47
2019-02-28T17:18:38.838Z,100300.47
2019-02-28T17:21:16.898Z,100302.44
2019-02-28T17:23:45.192Z,100304.95
2019-02-28T17:26:18.770Z,100306.58
2019-02-28T17:28:52.331Z,100302.19
2019-02-28T17:31:29.718Z,100312.29
2019-02-28T17:48:52.557Z,100321.75
2019-02-28T17:51:36.289Z,100318.63
2019-02-28T17:54:23.678Z,100334.59
2019-02-28T17:57:03.111Z,100323.66
2019-02-28T18:44:08.704Z,100364.70
2019-02-28T18:50:54.063Z,100367.91
2019-02-28T18:53:25.841Z,100371.41
2019-02-28T18:59:29.445Z,100377.30
2019-02-28T19:05:48.365Z,100385.45
2019-02-28T19:08:21.248Z,100391.59
2019-02-28T19:10:55.430Z,100397.21
2019-02-28T19:13:26.224Z,100389.93
2019-02-28T19:16:00.379Z,100393.86
2019-02-28T19:18:44.029Z,100395.89
2019-02-28T19:32:19.532Z,100413.03
2019-02-28T19:34:53.030Z,100415.52
2019-02-28T19:37:56.596Z,100420.73
2019-02-28T19:40:31.897Z,100415.42
2019-02-28T19:47:47.676Z,100428.78
2019-02-28T19:55:07.583Z,100421.70
2019-02-28T19:58:50.027Z,100424.02
2019-02-28T20:01:48.335Z,100425.39
2019-02-28T20:04:27.686Z,100430.77
2019-02-28T20:08:05.429Z,100428.28
2019-02-28T20:10:35.874Z,100431.16
2019-02-28T20:13:06.333Z,100433.34
2019-02-28T20:15:40.157Z,100429.39
2019-02-28T20:18:12.714Z,100436.35
2019-02-28T20:25:11.030Z,100435.02
2019-02-28T20:27:43.482Z,100434.86
2019-02-28T20:30:18.964Z,100442.84
2019-02-28T20:33:08.960Z,100447.47
2019-02-28T20:35:42.465Z,100450.50
2019-02-28T20:45:38.524Z,100441.00
2019-02-28T20:48:11.439Z,100442.21
2019-02-28T20:50:46.257Z,100443.34
2019-02-28T20:53:17.133Z,100444.39
2019-02-28T21:04:13.181Z,100456.31
2019-02-28T21:10:49.886Z,100445.48
2019-02-28T21:14:01.696Z,100459.55
2019-02-28T21:20:53.611Z,100468.56
2019-02-28T21:23:25.483Z,100457.87
2019-02-28T21:25:57.312Z,100455.70
2019-02-28T21:28:29.793Z,100451.06
2019-02-28T21:31:00.126Z,100452.96
2019-02-28T21:33:30.428Z,100451.39
2019-02-28T21:37:00.630Z,100449.27
2019-02-28T21:39:30.910Z,100448.67
2019-02-28T21:42:01.441Z,100447.34
2019-02-28T21:44:31.915Z,100437.89
2019-02-28T21:47:02.255Z,100437.05
2019-02-28T21:49:32.529Z,100440.60
2019-02-28T21:52:02.815Z,100439.69
2019-02-28T21:54:33.166Z,100441.70
2019-02-28T21:57:52.132Z,100439.00
2019-02-28T22:00:30.703Z,100444.28
2019-02-28T22:03:00.962Z,100448.41
2019-02-28T22:05:31.234Z,100444.00
2019-02-28T22:08:01.558Z,100436.96
2019-02-28T22:10:31.970Z,100443.87
2019-02-28T22:13:02.311Z,100439.12
2019-02-28T22:15:32.715Z,100442.50
2019-02-28T22:18:03.242Z,100444.91
2019-02-28T22:20:33.531Z,100444.80
2019-02-28T22:23:03.870Z,100449.12
2019-02-28T22:25:34.139Z,100449.61
2019-02-28T22:28:04.401Z,100452.23
2019-02-28T22:30:42.337Z,100454.89
2019-02-28T22:33:20.053Z,100454.30
2019-02-28T22:35:51.989Z,100455.74
2019-02-28T22:38:22.331Z,100458.12
2019-02-28T22:40:52.691Z,100455.40
2019-02-28T22:43:22.955Z,100449.48
2019-02-28T22:45:53.299Z,100455.38
2019-02-28T22:48:24.710Z,100453.33
2019-02-28T22:50:55.145Z,100453.55
2019-02-28T22:53:27.078Z,100459.22
2019-02-28T22:55:57.376Z,100461.11
2019-02-28T22:58:27.696Z,100464.52
2019-02-28T23:01:14.718Z,100464.60
2019-02-28T23:03:49.496Z,100459.89
2019-02-28T23:06:20.207Z,100462.77
2019-02-28T23:08:50.476Z,100462.62
2019-02-28T23:11:22.405Z,100460.61
2019-02-28T23:13:54.341Z,100470.08
2019-02-28T23:16:24.658Z,100462.08
2019-02-28T23:18:54.929Z,100463.23
2019-02-28T23:21:25.201Z,100464.17
2019-02-28T23:23:55.552Z,100468.13
2019-02-28T23:26:26.986Z,100470.28
2019-02-28T23:29:00.617Z,100470.05
2019-02-28T23:31:58.765Z,100471.84
2019-02-28T23:34:34.766Z,100458.69
2019-02-28T23:37:05.136Z,100457.89
2019-02-28T23:39:35.470Z,100447.40
2019-02-28T23:42:05.871Z,100449.12
2019-02-28T23:44:39.222Z,100456.94
2019-02-28T23:47:09.516Z,100449.73
2019-02-28T23:49:39.797Z,100458.17
2019-02-28T23:52:10.153Z,100457.95
2019-02-28T23:54:42.074Z,100457.63
2019-02-28T23:57:12.442Z,100461.05
2019-02-28T23:59:42.787Z,100455.53
